Forside
METAR-TAF:

METAR-TAF

Lufthavne :

Clarion Municipal Airport

Clarion, Iowa, USA

Breddekreds: 42-45N, længdekreds: 093-46W, højde: 354 m

Aktuelle vejr

Denne rapport blev lavet for 11 minutter siden, kl. 08:15 UTC
Vind 5 kt fra sydsydøst
Temperatur 23°C
Fugtighed 100%
Tryk 1011 hPa
Sigt: 16.1 km
skyfri

METAR: KCAV 090815Z AUTO 15005KT 10SM CLR 23/23 A2984 RMK A01

Tid: 03:26 (08:26 UTC)


TAF: fraværende

Vejrobservationer og prognoser fra mere end 4000 lufthavne (METAR og TAF).

De gule og røde prikker repræsenterer de meteorologiske stationer.

Flyt musen over at se navnet på stationen.

Så klik over at se vejr observationer og prognoser.

At skifte det kort: Klik på de grønne knapper med et sort kors for at zoome ind; på den grønne knap med en bindestreg for at zoome ud; eller på de grønne pile for tilstødende kort.


METAR-TAF: